sensor_id;sensor_type;location;lat;lon;timestamp;pressure;altitude;pressure_sealevel;temperature;humidity
83246;BME280;73140;46.754;17.714;2023-12-20T09:41:55;99297.03;;;-1.67;95.14
83246;BME280;73140;46.754;17.714;2023-12-20T09:44:55;99451.50;;;-0.74;95.60
83246;BME280;73140;46.754;17.714;2023-12-20T09:50:45;99433.56;;;-0.87;95.99
83246;BME280;73140;46.754;17.714;2023-12-20T10:57:27;99238.91;;;0.44;96.27
83246;BME280;73140;46.754;17.714;2023-12-20T11:00:03;99293.72;;;1.08;95.69
83246;BME280;73140;46.754;17.714;2023-12-20T11:02:49;99237.94;;;1.03;95.06
83246;BME280;73140;46.754;17.714;2023-12-20T11:05:46;99226.25;;;1.14;95.48
83246;BME280;73140;46.754;17.714;2023-12-20T11:08:22;99319.19;;;1.79;93.42
83246;BME280;73140;46.754;17.714;2023-12-20T11:11:13;99193.75;;;1.25;94.36
83246;BME280;73140;46.754;17.714;2023-12-20T11:14:03;99270.75;;;1.84;92.76
83246;BME280;73140;46.754;17.714;2023-12-20T11:16:44;99207.13;;;1.57;92.92
83246;BME280;73140;46.754;17.714;2023-12-20T11:19:26;99258.91;;;1.92;90.84
83246;BME280;73140;46.754;17.714;2023-12-20T11:22:00;99255.94;;;1.83;90.55
83246;BME280;73140;46.754;17.714;2023-12-20T11:24:33;99259.75;;;1.92;90.79
83246;BME280;73140;46.754;17.714;2023-12-20T11:27:06;99264.34;;;1.76;90.30
83246;BME280;73140;46.754;17.714;2023-12-20T11:29:51;99208.28;;;1.42;92.04
83246;BME280;73140;46.754;17.714;2023-12-20T11:32:37;99214.69;;;1.28;92.58
83246;BME280;73140;46.754;17.714;2023-12-20T11:35:18;99200.47;;;0.79;92.22
83246;BME280;73140;46.754;17.714;2023-12-20T11:38:06;99218.53;;;0.74;94.46
83246;BME280;73140;46.754;17.714;2023-12-20T11:40:41;99193.56;;;0.79;94.80
83246;BME280;73140;46.754;17.714;2023-12-20T11:43:35;99204.38;;;1.31;96.47
83246;BME280;73140;46.754;17.714;2023-12-20T11:46:10;99241.03;;;2.03;94.74
83246;BME280;73140;46.754;17.714;2023-12-20T11:48:38;99204.63;;;2.06;93.56
83246;BME280;73140;46.754;17.714;2023-12-20T11:51:09;99313.97;;;2.95;93.63
83246;BME280;73140;46.754;17.714;2023-12-20T11:53:35;99280.72;;;2.89;92.40
83246;BME280;73140;46.754;17.714;2023-12-20T11:56:03;99254.53;;;2.88;92.38
83246;BME280;73140;46.754;17.714;2023-12-20T11:58:29;99276.94;;;3.06;91.92
83246;BME280;73140;46.754;17.714;2023-12-20T12:00:56;99245.09;;;2.91;92.46
83246;BME280;73140;46.754;17.714;2023-12-20T12:03:26;99311.97;;;3.37;91.85
83246;BME280;73140;46.754;17.714;2023-12-20T12:05:52;99309.22;;;3.33;89.80
83246;BME280;73140;46.754;17.714;2023-12-20T12:08:18;99257.00;;;3.08;90.87
83246;BME280;73140;46.754;17.714;2023-12-20T12:10:44;99230.53;;;2.98;90.69
83246;BME280;73140;46.754;17.714;2023-12-20T12:13:13;99299.63;;;3.32;91.26
83246;BME280;73140;46.754;17.714;2023-12-20T12:15:40;99324.63;;;3.24;91.16
83246;BME280;73140;46.754;17.714;2023-12-20T12:18:08;99252.78;;;2.63;90.08
83246;BME280;73140;46.754;17.714;2023-12-20T12:20:35;99268.44;;;2.63;92.29
83246;BME280;73140;46.754;17.714;2023-12-20T12:23:03;99263.03;;;2.57;93.68
83246;BME280;73140;46.754;17.714;2023-12-20T12:25:29;99263.56;;;2.72;93.50
83246;BME280;73140;46.754;17.714;2023-12-20T12:27:59;99312.25;;;2.95;92.89
83246;BME280;73140;46.754;17.714;2023-12-20T12:30:25;99285.66;;;3.07;92.76
83246;BME280;73140;46.754;17.714;2023-12-20T12:32:51;99251.78;;;3.08;94.05
83246;BME280;73140;46.754;17.714;2023-12-20T12:35:18;99270.97;;;3.36;93.32
83246;BME280;73140;46.754;17.714;2023-12-20T12:37:46;99262.97;;;3.58;93.25
83246;BME280;73140;46.754;17.714;2023-12-20T12:40:13;99254.31;;;3.59;92.54
83246;BME280;73140;46.754;17.714;2023-12-20T12:42:41;99263.94;;;3.88;92.72
83246;BME280;73140;46.754;17.714;2023-12-20T12:45:07;99277.47;;;3.75;92.49
83246;BME280;73140;46.754;17.714;2023-12-20T12:47:34;99246.88;;;3.72;92.85
83246;BME280;73140;46.754;17.714;2023-12-20T12:50:00;99266.75;;;3.94;92.73
83246;BME280;73140;46.754;17.714;2023-12-20T12:52:27;99223.66;;;3.55;93.24
83246;BME280;73140;46.754;17.714;2023-12-20T12:54:54;99279.81;;;3.94;93.72
83246;BME280;73140;46.754;17.714;2023-12-20T12:57:20;99279.13;;;4.00;93.36
83246;BME280;73140;46.754;17.714;2023-12-20T12:59:46;99213.88;;;3.76;92.48
83246;BME280;73140;46.754;17.714;2023-12-20T13:02:13;99247.75;;;4.01;92.44
83246;BME280;73140;46.754;17.714;2023-12-20T13:04:39;99258.72;;;3.88;92.58
83246;BME280;73140;46.754;17.714;2023-12-20T13:07:05;99199.84;;;3.46;91.44
83246;BME280;73140;46.754;17.714;2023-12-20T13:09:31;99257.72;;;3.85;90.31
83246;BME280;73140;46.754;17.714;2023-12-20T13:11:59;99199.41;;;3.59;89.89
83246;BME280;73140;46.754;17.714;2023-12-20T13:14:25;99265.25;;;4.02;91.00
83246;BME280;73140;46.754;17.714;2023-12-20T13:16:51;99224.00;;;3.94;90.29
83246;BME280;73140;46.754;17.714;2023-12-20T13:19:17;99208.53;;;4.01;89.17
83246;BME280;73140;46.754;17.714;2023-12-20T13:21:43;99229.28;;;4.25;89.10
83246;BME280;73140;46.754;17.714;2023-12-20T13:24:09;99199.56;;;4.23;87.19
83246;BME280;73140;46.754;17.714;2023-12-20T13:26:35;99200.34;;;4.20;86.49
83246;BME280;73140;46.754;17.714;2023-12-20T13:29:03;99268.41;;;4.50;87.83
83246;BME280;73140;46.754;17.714;2023-12-20T13:31:29;99183.34;;;3.75;87.91
83246;BME280;73140;46.754;17.714;2023-12-20T13:33:55;99257.41;;;4.02;90.92
83246;BME280;73140;46.754;17.714;2023-12-20T13:36:21;99254.69;;;3.99;87.69
83246;BME280;73140;46.754;17.714;2023-12-20T13:38:47;99259.84;;;4.26;87.70
83246;BME280;73140;46.754;17.714;2023-12-20T13:41:13;99265.38;;;4.37;87.25
83246;BME280;73140;46.754;17.714;2023-12-20T13:43:39;99254.91;;;4.37;89.23
83246;BME280;73140;46.754;17.714;2023-12-20T13:46:06;99269.91;;;4.42;87.71
83246;BME280;73140;46.754;17.714;2023-12-20T13:48:32;99268.56;;;4.56;87.20
83246;BME280;73140;46.754;17.714;2023-12-20T13:50:58;99241.34;;;4.50;87.63
83246;BME280;73140;46.754;17.714;2023-12-20T13:53:25;99218.34;;;4.40;86.96
83246;BME280;73140;46.754;17.714;2023-12-20T13:55:51;99217.97;;;4.26;85.78
83246;BME280;73140;46.754;17.714;2023-12-20T13:58:17;99249.69;;;4.07;88.13
83246;BME280;73140;46.754;17.714;2023-12-20T14:00:43;99275.34;;;3.90;88.65
83246;BME280;73140;46.754;17.714;2023-12-20T14:03:11;99253.94;;;3.75;88.07
83246;BME280;73140;46.754;17.714;2023-12-20T14:05:37;99266.06;;;3.73;88.11
83246;BME280;73140;46.754;17.714;2023-12-20T14:08:03;99261.69;;;3.72;87.23
83246;BME280;73140;46.754;17.714;2023-12-20T14:10:29;99262.28;;;3.63;87.98
83246;BME280;73140;46.754;17.714;2023-12-20T14:12:55;99209.16;;;3.09;89.61
83246;BME280;73140;46.754;17.714;2023-12-20T14:15:21;99190.22;;;3.16;88.82
83246;BME280;73140;46.754;17.714;2023-12-20T14:17:51;99213.38;;;3.32;87.39
83246;BME280;73140;46.754;17.714;2023-12-20T14:20:18;99242.56;;;3.46;88.47
83246;BME280;73140;46.754;17.714;2023-12-20T14:22:44;99278.16;;;3.43;89.45
83246;BME280;73140;46.754;17.714;2023-12-20T14:25:12;99285.69;;;3.59;89.48
83246;BME280;73140;46.754;17.714;2023-12-20T14:27:39;99247.78;;;3.19;89.59
83246;BME280;73140;46.754;17.714;2023-12-20T14:30:06;99216.44;;;3.19;89.37
83246;BME280;73140;46.754;17.714;2023-12-20T14:32:34;99242.28;;;3.37;89.68
83246;BME280;73140;46.754;17.714;2023-12-20T14:35:03;99307.91;;;3.73;90.53
83246;BME280;73140;46.754;17.714;2023-12-20T14:37:31;99192.22;;;2.98;89.14
83246;BME280;73140;46.754;17.714;2023-12-20T14:39:57;99230.91;;;3.10;89.95
83246;BME280;73140;46.754;17.714;2023-12-20T14:42:23;99231.78;;;3.10;90.97
83246;BME280;73140;46.754;17.714;2023-12-20T14:44:49;99303.03;;;3.57;90.83
83246;BME280;73140;46.754;17.714;2023-12-20T14:47:17;99292.19;;;3.45;90.16
83246;BME280;73140;46.754;17.714;2023-12-20T14:49:43;99317.78;;;3.55;90.58
83246;BME280;73140;46.754;17.714;2023-12-20T14:52:09;99277.66;;;3.27;90.66
83246;BME280;73140;46.754;17.714;2023-12-20T14:54:38;99279.97;;;3.44;90.72
83246;BME280;73140;46.754;17.714;2023-12-20T14:57:04;99306.28;;;3.50;90.92
83246;BME280;73140;46.754;17.714;2023-12-20T14:59:30;99312.31;;;3.74;90.42
83246;BME280;73140;46.754;17.714;2023-12-20T15:01:56;99315.34;;;3.61;89.67
83246;BME280;73140;46.754;17.714;2023-12-20T15:04:22;99322.78;;;3.74;90.75
83246;BME280;73140;46.754;17.714;2023-12-20T15:06:54;99335.25;;;3.56;88.91
83246;BME280;73140;46.754;17.714;2023-12-20T15:09:20;99332.47;;;3.51;91.80
83246;BME280;73140;46.754;17.714;2023-12-20T15:11:47;99345.81;;;3.59;90.60
83246;BME280;73140;46.754;17.714;2023-12-20T15:14:13;99288.22;;;3.30;90.95
83246;BME280;73140;46.754;17.714;2023-12-20T15:16:45;99329.97;;;3.54;90.75
83246;BME280;73140;46.754;17.714;2023-12-20T15:19:13;99306.59;;;3.59;90.24
83246;BME280;73140;46.754;17.714;2023-12-20T15:21:39;99303.47;;;3.70;89.59
83246;BME280;73140;46.754;17.714;2023-12-20T15:24:08;99314.19;;;3.51;90.98
83246;BME280;73140;46.754;17.714;2023-12-20T15:26:41;99314.00;;;3.72;90.56
83246;BME280;73140;46.754;17.714;2023-12-20T15:29:09;99353.34;;;3.76;90.76
83246;BME280;73140;46.754;17.714;2023-12-20T15:31:36;99275.38;;;3.37;89.79
83246;BME280;73140;46.754;17.714;2023-12-20T15:34:03;99326.59;;;3.85;90.71
83246;BME280;73140;46.754;17.714;2023-12-20T15:36:29;99327.91;;;4.26;88.74
83246;BME280;73140;46.754;17.714;2023-12-20T15:38:55;99328.34;;;4.13;89.43
83246;BME280;73140;46.754;17.714;2023-12-20T15:41:22;99301.22;;;4.09;88.94
83246;BME280;73140;46.754;17.714;2023-12-20T15:43:49;99268.31;;;4.17;89.02
83246;BME280;73140;46.754;17.714;2023-12-20T15:46:17;99347.50;;;4.68;87.42
83246;BME280;73140;46.754;17.714;2023-12-20T15:48:43;99279.44;;;4.39;86.61
83246;BME280;73140;46.754;17.714;2023-12-20T15:51:09;99355.84;;;4.85;86.23
83246;BME280;73140;46.754;17.714;2023-12-20T15:53:36;99343.66;;;4.87;84.82
83246;BME280;73140;46.754;17.714;2023-12-20T15:56:03;99352.31;;;4.55;87.39
83246;BME280;73140;46.754;17.714;2023-12-20T15:58:29;99294.78;;;4.26;86.38
83246;BME280;73140;46.754;17.714;2023-12-20T16:00:56;99362.31;;;4.68;86.89
83246;BME280;73140;46.754;17.714;2023-12-20T16:03:24;99353.88;;;4.48;86.17
83246;BME280;73140;46.754;17.714;2023-12-20T16:05:50;99345.69;;;4.38;87.86
83246;BME280;73140;46.754;17.714;2023-12-20T16:08:16;99331.78;;;4.39;87.51
83246;BME280;73140;46.754;17.714;2023-12-20T16:10:42;99321.56;;;4.48;86.94
83246;BME280;73140;46.754;17.714;2023-12-20T16:13:08;99333.34;;;4.62;85.95
83246;BME280;73140;46.754;17.714;2023-12-20T16:15:34;99363.06;;;4.94;86.39
83246;BME280;73140;46.754;17.714;2023-12-20T16:18:00;99356.53;;;5.09;84.61
83246;BME280;73140;46.754;17.714;2023-12-20T16:20:28;99309.16;;;5.03;84.03
83246;BME280;73140;46.754;17.714;2023-12-20T16:22:54;99357.34;;;5.40;84.04
83246;BME280;73140;46.754;17.714;2023-12-20T16:25:20;99336.94;;;5.30;83.63
83246;BME280;73140;46.754;17.714;2023-12-20T16:27:46;99351.50;;;5.18;85.04
83246;BME280;73140;46.754;17.714;2023-12-20T16:30:14;99306.13;;;4.88;84.84
83246;BME280;73140;46.754;17.714;2023-12-20T16:32:40;99363.84;;;4.91;85.77
83246;BME280;73140;46.754;17.714;2023-12-20T16:35:07;99339.88;;;4.48;87.80
83246;BME280;73140;46.754;17.714;2023-12-20T16:37:34;99384.50;;;4.51;85.80
83246;BME280;73140;46.754;17.714;2023-12-20T16:40:04;99370.69;;;4.26;86.16
83246;BME280;73140;46.754;17.714;2023-12-20T16:42:30;99401.84;;;4.19;87.02
83246;BME280;73140;46.754;17.714;2023-12-20T16:44:56;99422.53;;;4.11;88.17
83246;BME280;73140;46.754;17.714;2023-12-20T16:47:22;99327.56;;;3.60;87.66
83246;BME280;73140;46.754;17.714;2023-12-20T16:49:48;99349.81;;;4.01;87.26
83246;BME280;73140;46.754;17.714;2023-12-20T16:52:14;99411.31;;;4.42;86.85
83246;BME280;73140;46.754;17.714;2023-12-20T16:54:42;99334.31;;;4.07;87.67
83246;BME280;73140;46.754;17.714;2023-12-20T16:57:08;99401.28;;;4.57;87.25
83246;BME280;73140;46.754;17.714;2023-12-20T16:59:34;99406.81;;;4.66;86.79
83246;BME280;73140;46.754;17.714;2023-12-20T17:02:00;99381.94;;;4.52;86.85
83246;BME280;73140;46.754;17.714;2023-12-20T17:04:29;99390.56;;;4.78;85.24
83246;BME280;73140;46.754;17.714;2023-12-20T17:06:58;99411.50;;;5.08;85.51
83246;BME280;73140;46.754;17.714;2023-12-20T17:09:24;99376.69;;;5.12;84.94
83246;BME280;73140;46.754;17.714;2023-12-20T17:11:52;99350.84;;;4.94;82.67
83246;BME280;73140;46.754;17.714;2023-12-20T17:14:19;99408.47;;;5.24;84.79
83246;BME280;73140;46.754;17.714;2023-12-20T17:16:45;99427.16;;;5.05;84.73
83246;BME280;73140;46.754;17.714;2023-12-20T17:19:14;99422.41;;;4.92;84.77
83246;BME280;73140;46.754;17.714;2023-12-20T17:21:40;99382.38;;;4.67;85.70
83246;BME280;73140;46.754;17.714;2023-12-20T17:24:06;99399.41;;;4.53;85.31
83246;BME280;73140;46.754;17.714;2023-12-20T17:26:32;99433.88;;;4.67;85.83
83246;BME280;73140;46.754;17.714;2023-12-20T17:29:00;99399.66;;;4.33;86.96
83246;BME280;73140;46.754;17.714;2023-12-20T17:31:26;99424.34;;;4.41;86.96
83246;BME280;73140;46.754;17.714;2023-12-20T17:33:52;99453.06;;;4.66;86.79
83246;BME280;73140;46.754;17.714;2023-12-20T17:36:18;99458.47;;;4.72;87.37
83246;BME280;73140;46.754;17.714;2023-12-20T17:38:44;99411.56;;;4.80;84.63
83246;BME280;73140;46.754;17.714;2023-12-20T17:41:10;99419.38;;;5.08;84.32
83246;BME280;73140;46.754;17.714;2023-12-20T17:43:36;99389.31;;;4.95;84.16
83246;BME280;73140;46.754;17.714;2023-12-20T17:46:04;99407.09;;;5.05;83.46
83246;BME280;73140;46.754;17.714;2023-12-20T17:48:30;99469.06;;;5.35;83.97
83246;BME280;73140;46.754;17.714;2023-12-20T17:50:56;99433.81;;;5.23;83.03
83246;BME280;73140;46.754;17.714;2023-12-20T17:53:22;99447.00;;;5.27;83.36
83246;BME280;73140;46.754;17.714;2023-12-20T17:55:48;99459.94;;;5.20;83.71
83246;BME280;73140;46.754;17.714;2023-12-20T17:58:14;99438.31;;;4.98;84.04
83246;BME280;73140;46.754;17.714;2023-12-20T18:00:40;99464.06;;;5.12;84.30
83246;BME280;73140;46.754;17.714;2023-12-20T18:03:07;99409.22;;;4.89;83.48
83246;BME280;73140;46.754;17.714;2023-12-20T18:05:33;99420.81;;;4.98;83.40
83246;BME280;73140;46.754;17.714;2023-12-20T18:07:59;99489.25;;;5.07;84.72
83246;BME280;73140;46.754;17.714;2023-12-20T18:10:25;99407.50;;;4.61;83.93
83246;BME280;73140;46.754;17.714;2023-12-20T18:12:51;99433.69;;;4.61;84.61
83246;BME280;73140;46.754;17.714;2023-12-20T18:15:17;99450.09;;;4.55;84.90
83246;BME280;73140;46.754;17.714;2023-12-20T18:17:43;99397.03;;;4.33;84.95
83246;BME280;73140;46.754;17.714;2023-12-20T18:20:12;99475.16;;;4.74;85.71
83246;BME280;73140;46.754;17.714;2023-12-20T18:22:39;99490.97;;;4.78;84.76
83246;BME280;73140;46.754;17.714;2023-12-20T18:25:06;99484.88;;;4.78;85.17
83246;BME280;73140;46.754;17.714;2023-12-20T18:27:32;99401.03;;;4.21;86.22
83246;BME280;73140;46.754;17.714;2023-12-20T18:29:58;99400.75;;;4.12;84.10
83246;BME280;73140;46.754;17.714;2023-12-20T18:32:31;99446.50;;;4.52;85.62
83246;BME280;73140;46.754;17.714;2023-12-20T18:34:57;99455.16;;;4.49;84.87
83246;BME280;73140;46.754;17.714;2023-12-20T18:37:24;99416.25;;;4.06;86.01
83246;BME280;73140;46.754;17.714;2023-12-20T18:39:50;99405.88;;;4.09;85.20
83246;BME280;73140;46.754;17.714;2023-12-20T18:42:16;99453.56;;;4.27;84.77
83246;BME280;73140;46.754;17.714;2023-12-20T18:44:42;99472.13;;;4.08;85.58
83246;BME280;73140;46.754;17.714;2023-12-20T18:47:08;99411.41;;;3.92;86.13
83246;BME280;73140;46.754;17.714;2023-12-20T18:49:35;99479.66;;;4.24;86.66
83246;BME280;73140;46.754;17.714;2023-12-20T18:52:01;99493.97;;;4.36;86.43
83246;BME280;73140;46.754;17.714;2023-12-20T18:54:29;99446.44;;;3.97;85.66
83246;BME280;73140;46.754;17.714;2023-12-20T18:56:55;99440.22;;;3.93;86.38
83246;BME280;73140;46.754;17.714;2023-12-20T18:59:21;99439.72;;;3.78;86.37
83246;BME280;73140;46.754;17.714;2023-12-20T19:01:48;99465.91;;;4.05;86.37
83246;BME280;73140;46.754;17.714;2023-12-20T19:04:14;99474.56;;;4.29;85.56
83246;BME280;73140;46.754;17.714;2023-12-20T19:06:41;99461.06;;;4.15;85.81
83246;BME280;73140;46.754;17.714;2023-12-20T19:09:07;99503.44;;;4.59;85.36
83246;BME280;73140;46.754;17.714;2023-12-20T19:11:35;99483.22;;;4.53;84.34
83246;BME280;73140;46.754;17.714;2023-12-20T19:14:02;99478.84;;;4.81;82.69
83246;BME280;73140;46.754;17.714;2023-12-20T19:16:28;99498.25;;;4.87;82.17
83246;BME280;73140;46.754;17.714;2023-12-20T19:18:54;99432.50;;;4.51;83.16
83246;BME280;73140;46.754;17.714;2023-12-20T19:21:20;99472.25;;;4.95;82.12
83246;BME280;73140;46.754;17.714;2023-12-20T19:23:46;99435.84;;;4.74;82.05
83246;BME280;73140;46.754;17.714;2023-12-20T19:26:13;99508.78;;;5.18;80.75
83246;BME280;73140;46.754;17.714;2023-12-20T19:28:40;99507.69;;;5.10;81.37
83246;BME280;73140;46.754;17.714;2023-12-20T19:31:08;99433.69;;;4.61;81.72
83246;BME280;73140;46.754;17.714;2023-12-20T19:33:35;99489.19;;;5.06;81.39
83246;BME280;73140;46.754;17.714;2023-12-20T19:36:03;99488.88;;;4.95;81.27
83246;BME280;73140;46.754;17.714;2023-12-20T19:38:29;99443.13;;;4.56;82.12
83246;BME280;73140;46.754;17.714;2023-12-20T19:40:55;99477.00;;;4.50;82.15
83246;BME280;73140;46.754;17.714;2023-12-20T19:43:22;99506.72;;;4.52;82.85
83246;BME280;73140;46.754;17.714;2023-12-20T19:45:49;99517.59;;;4.37;83.62
83246;BME280;73140;46.754;17.714;2023-12-20T19:48:15;99464.91;;;4.26;81.67
83246;BME280;73140;46.754;17.714;2023-12-20T19:50:41;99536.00;;;4.65;82.04
83246;BME280;73140;46.754;17.714;2023-12-20T19:53:07;99491.47;;;4.39;83.12
83246;BME280;73140;46.754;17.714;2023-12-20T19:55:34;99480.16;;;4.40;82.23
83246;BME280;73140;46.754;17.714;2023-12-20T19:58:00;99446.38;;;4.20;81.59
83246;BME280;73140;46.754;17.714;2023-12-20T20:00:27;99520.66;;;4.78;81.20
83246;BME280;73140;46.754;17.714;2023-12-20T20:02:57;99523.88;;;4.69;81.19
83246;BME280;73140;46.754;17.714;2023-12-20T20:05:22;99460.69;;;4.32;81.81
83246;BME280;73140;46.754;17.714;2023-12-20T20:07:50;99483.81;;;4.45;81.79
83246;BME280;73140;46.754;17.714;2023-12-20T20:10:17;99437.09;;;4.03;82.34
83246;BME280;73140;46.754;17.714;2023-12-20T20:12:43;99494.94;;;4.38;82.49
83246;BME280;73140;46.754;17.714;2023-12-20T20:15:09;99465.44;;;4.16;82.26
83246;BME280;73140;46.754;17.714;2023-12-20T20:17:36;99399.34;;;3.70;82.61
83246;BME280;73140;46.754;17.714;2023-12-20T20:20:04;99508.59;;;4.29;83.22
83246;BME280;73140;46.754;17.714;2023-12-20T20:22:31;99476.94;;;3.96;84.51
83246;BME280;73140;46.754;17.714;2023-12-20T20:24:59;99479.44;;;3.92;83.50
83246;BME280;73140;46.754;17.714;2023-12-20T20:27:25;99518.31;;;4.06;84.18
83246;BME280;73140;46.754;17.714;2023-12-20T20:29:51;99509.72;;;3.85;84.46
83246;BME280;73140;46.754;17.714;2023-12-20T20:32:17;99514.50;;;3.48;84.08
83246;BME280;73140;46.754;17.714;2023-12-20T20:34:44;99525.16;;;3.54;85.12
83246;BME280;73140;46.754;17.714;2023-12-20T20:37:11;99481.13;;;3.17;85.86
83246;BME280;73140;46.754;17.714;2023-12-20T20:39:37;99528.44;;;3.48;84.66
83246;BME280;73140;46.754;17.714;2023-12-20T20:42:04;99515.03;;;3.39;85.93
83246;BME280;73140;46.754;17.714;2023-12-20T20:44:30;99410.00;;;2.78;85.50
83246;BME280;73140;46.754;17.714;2023-12-20T20:46:56;99504.91;;;3.24;86.32
83246;BME280;73140;46.754;17.714;2023-12-20T20:49:22;99468.59;;;3.08;87.14
83246;BME280;73140;46.754;17.714;2023-12-20T20:51:50;99526.53;;;3.20;87.23
83246;BME280;73140;46.754;17.714;2023-12-20T20:54:18;99474.44;;;2.79;88.49
83246;BME280;73140;46.754;17.714;2023-12-20T20:56:44;99545.44;;;3.13;88.95
83246;BME280;73140;46.754;17.714;2023-12-20T20:59:10;99495.78;;;2.91;88.67
83246;BME280;73140;46.754;17.714;2023-12-20T21:01:36;99431.06;;;2.60;87.93
83246;BME280;73140;46.754;17.714;2023-12-20T21:04:03;99540.66;;;3.25;88.16
83246;BME280;73140;46.754;17.714;2023-12-20T21:06:30;99486.19;;;2.68;88.82
83246;BME280;73140;46.754;17.714;2023-12-20T21:08:56;99516.78;;;2.70;90.75
83246;BME280;73140;46.754;17.714;2023-12-20T21:11:23;99499.91;;;2.62;90.39
83246;BME280;73140;46.754;17.714;2023-12-20T21:13:50;99503.88;;;2.75;89.50
83246;BME280;73140;46.754;17.714;2023-12-20T21:16:16;99534.16;;;2.92;89.09
83246;BME280;73140;46.754;17.714;2023-12-20T21:18:42;99539.84;;;3.04;88.44
83246;BME280;73140;46.754;17.714;2023-12-20T21:21:12;99507.81;;;2.86;87.76
83246;BME280;73140;46.754;17.714;2023-12-20T21:23:39;99540.38;;;2.96;88.33
83246;BME280;73140;46.754;17.714;2023-12-20T21:26:05;99527.13;;;2.91;88.61
83246;BME280;73140;46.754;17.714;2023-12-20T21:28:34;99406.47;;;2.31;88.43
83246;BME280;73140;46.754;17.714;2023-12-20T21:31:01;99547.47;;;3.22;88.08
83246;BME280;73140;46.754;17.714;2023-12-20T21:33:27;99483.53;;;2.66;86.76
83246;BME280;73140;46.754;17.714;2023-12-20T21:35:53;99519.31;;;2.69;88.51
83246;BME280;73140;46.754;17.714;2023-12-20T21:38:20;99526.19;;;2.67;89.28
83246;BME280;73140;46.754;17.714;2023-12-20T21:40:46;99449.38;;;2.17;88.52
83246;BME280;73140;46.754;17.714;2023-12-20T21:43:13;99500.75;;;2.41;88.89
83246;BME280;73140;46.754;17.714;2023-12-20T21:45:40;99448.50;;;2.17;89.19
83246;BME280;73140;46.754;17.714;2023-12-20T21:48:08;99548.13;;;2.50;87.92
83246;BME280;73140;46.754;17.714;2023-12-20T21:50:34;99516.13;;;2.55;90.56
83246;BME280;73140;46.754;17.714;2023-12-20T21:53:02;99408.69;;;2.00;90.54
83246;BME280;73140;46.754;17.714;2023-12-20T21:55:28;99523.34;;;2.40;91.78
83246;BME280;73140;46.754;17.714;2023-12-20T21:57:57;99491.00;;;2.14;92.40
83246;BME280;73140;46.754;17.714;2023-12-20T22:00:23;99460.28;;;2.07;91.94
83246;BME280;73140;46.754;17.714;2023-12-20T22:02:50;99544.19;;;2.38;91.52
83246;BME280;73140;46.754;17.714;2023-12-20T22:05:16;99530.34;;;2.84;90.17
83246;BME280;73140;46.754;17.714;2023-12-20T22:07:42;99477.44;;;2.66;90.56
83246;BME280;73140;46.754;17.714;2023-12-20T22:10:09;99484.38;;;2.65;89.89
83246;BME280;73140;46.754;17.714;2023-12-20T22:12:35;99472.34;;;2.48;90.25
83246;BME280;73140;46.754;17.714;2023-12-20T22:15:01;99461.59;;;2.39;90.06
83246;BME280;73140;46.754;17.714;2023-12-20T22:17:27;99523.56;;;2.67;90.28
83246;BME280;73140;46.754;17.714;2023-12-20T22:19:54;99495.31;;;2.34;90.88
83246;BME280;73140;46.754;17.714;2023-12-20T22:22:20;99399.50;;;1.67;91.08
83246;BME280;73140;46.754;17.714;2023-12-20T22:24:46;99513.63;;;2.36;90.92
83246;BME280;73140;46.754;17.714;2023-12-20T22:27:12;99469.75;;;2.26;89.74
83246;BME280;73140;46.754;17.714;2023-12-20T22:29:38;99524.16;;;2.60;89.98
83246;BME280;73140;46.754;17.714;2023-12-20T22:32:04;99484.47;;;2.46;90.77
83246;BME280;73140;46.754;17.714;2023-12-20T22:34:33;99546.94;;;2.64;90.33
83246;BME280;73140;46.754;17.714;2023-12-20T22:37:01;99473.25;;;2.26;90.48
83246;BME280;73140;46.754;17.714;2023-12-20T22:39:27;99514.91;;;2.46;90.76
83246;BME280;73140;46.754;17.714;2023-12-20T22:41:53;99505.06;;;2.38;90.56
83246;BME280;73140;46.754;17.714;2023-12-20T22:44:19;99467.16;;;2.27;90.90
83246;BME280;73140;46.754;17.714;2023-12-20T22:46:45;99470.38;;;2.20;90.02
83246;BME280;73140;46.754;17.714;2023-12-20T22:49:11;99536.91;;;2.52;90.43
83246;BME280;73140;46.754;17.714;2023-12-20T22:51:37;99507.28;;;2.52;90.26
83246;BME280;73140;46.754;17.714;2023-12-20T22:54:04;99470.88;;;2.32;90.48
83246;BME280;73140;46.754;17.714;2023-12-20T22:56:31;99396.13;;;1.90;90.13
83246;BME280;73140;46.754;17.714;2023-12-20T22:58:57;99497.44;;;2.45;91.08
83246;BME280;73140;46.754;17.714;2023-12-20T23:01:23;99497.34;;;2.64;90.51
83246;BME280;73140;46.754;17.714;2023-12-20T23:03:49;99475.16;;;2.53;89.52
83246;BME280;73140;46.754;17.714;2023-12-20T23:06:15;99463.53;;;2.67;88.85
83246;BME280;73140;46.754;17.714;2023-12-20T23:08:41;99475.75;;;2.90;88.19
83246;BME280;73140;46.754;17.714;2023-12-20T23:11:08;99387.25;;;2.52;88.04
83246;BME280;73140;46.754;17.714;2023-12-20T23:13:34;99373.63;;;2.59;86.80
83246;BME280;73140;46.754;17.714;2023-12-20T23:16:00;99473.56;;;3.24;86.29
83246;BME280;73140;46.754;17.714;2023-12-20T23:18:26;99399.31;;;2.72;85.63
83246;BME280;73140;46.754;17.714;2023-12-20T23:20:52;99436.59;;;2.68;86.51
83246;BME280;73140;46.754;17.714;2023-12-20T23:23:36;99456.66;;;2.47;88.46
83246;BME280;73140;46.754;17.714;2023-12-20T23:26:03;99441.94;;;2.26;90.44
83246;BME280;73140;46.754;17.714;2023-12-20T23:28:30;99490.69;;;2.72;89.95
83246;BME280;73140;46.754;17.714;2023-12-20T23:30:56;99456.41;;;2.85;89.38
83246;BME280;73140;46.754;17.714;2023-12-20T23:33:22;99432.34;;;2.70;89.86
83246;BME280;73140;46.754;17.714;2023-12-20T23:35:48;99456.28;;;2.60;90.16
83246;BME280;73140;46.754;17.714;2023-12-20T23:38:14;99411.75;;;2.33;90.48
83246;BME280;73140;46.754;17.714;2023-12-20T23:40:40;99393.91;;;2.21;90.68
83246;BME280;73140;46.754;17.714;2023-12-20T23:43:06;99453.09;;;2.45;91.22
83246;BME280;73140;46.754;17.714;2023-12-20T23:45:35;99434.00;;;2.46;91.08
83246;BME280;73140;46.754;17.714;2023-12-20T23:48:01;99390.22;;;2.16;91.16
83246;BME280;73140;46.754;17.714;2023-12-20T23:50:27;99395.31;;;2.13;91.59